Date,TemperatureHighF,TemperatureAvgF,TemperatureLowF,DewpointHighF,DewpointAvgF,DewpointLowF,HumidityHigh,HumidityAvg,HumidityLow,PressureMaxIn,PressureMinIn,WindSpeedMaxMPH,WindSpeedAvgMPH,GustSpeedMaxMPH,PrecipitationSumIn
2013-10-1,85,78,74,71,69,65,88,76,52,29.72,29.66,0,0,0,0.00
2013-10-2,88,77,72,74,68,60,100,78,40,29.79,29.67,1,0,8,0.00
2013-10-3,90,77,70,76,68,64,100,77,42,29.73,29.62,2,0,8,0.02
2013-10-4,90,75,70,74,68,60,100,83,37,29.70,29.63,2,0,8,0.01
2013-10-5,87,75,54,76,68,48,100,80,50,29.82,29.66,11,2,17,0.22
2013-10-6,69,54,49,50,47,39,96,78,33,29.82,29.74,4,1,10,0.24
2013-10-7,71,52,48,48,45,40,92,78,32,29.89,29.80,2,0,4,0.01
2013-10-8,69,52,47,49,46,43,92,78,41,29.91,29.80,0,0,2,0.00
2013-10-9,75,55,46,56,48,44,93,78,38,29.88,29.78,0,0,1,0.00
2013-10-10,77,58,49,56,51,46,97,79,43,29.88,29.70,0,0,1,0.00
2013-10-11,63,62,60,55,54,53,83,77,72,29.70,29.69,0,0,1,0.00
2013-10-13,69,68,67,65,64,63,89,86,82,29.96,29.93,0,0,0,0.01
2013-10-14,69,67,63,68,60,49,100,80,58,29.93,29.74,0,0,2,0.17
2013-10-15,78,69,63,74,69,63,99,98,80,29.77,29.66,5,0,9,1.05
2013-10-16,63,58,55,63,58,55,100,98,91,29.83,29.72,4,0,7,0.66
2013-10-17,67,54,48,57,50,41,99,89,39,29.86,29.74,3,0,8,0.07
2013-10-18,72,56,45,57,49,44,99,80,41,29.82,29.69,2,0,7,0.01
2013-10-19,62,50,44,58,39,-100,91,69,29,29.91,29.76,7,1,16,0.01
2013-10-20,58,45,36,44,38,33,92,78,51,29.86,29.69,0,0,0,0.00
2013-10-21,69,56,47,56,49,42,94,80,46,29.83,29.72,1,0,6,0.14
2013-10-22,63,50,42,53,47,41,100,89,44,29.88,29.74,0,0,2,0.15
2013-10-23,71,50,44,49,45,42,95,81,45,29.91,29.80,0,0,0,0.00
2013-10-24,55,50,46,52,44,36,95,81,50,30.08,29.80,0,0,0,0.00
2013-10-25,51,47,44,38,33,26,69,59,42,30.24,30.06,0,0,2,0.00
2013-10-26,55,48,42,55,42,-100,100,81,62,30.06,29.84,0,0,2,3.24
2013-10-27,73,60,55,63,55,49,100,86,44,29.87,29.77,4,0,8,2.17
2013-10-28,76,63,54,61,54,-100,100,78,45,29.91,29.80,2,0,5,0.01
2013-10-29,81,70,64,66,62,58,94,76,49,29.89,29.78,8,0,14,0.00
2013-10-30,74,68,64,70,63,53,100,83,51,29.82,29.61,5,1,17,0.18
2013-10-31,80,64,51,73,60,41,100,88,44,29.61,29.40,6,0,11,0.30